Orbital elements of SL-6 R/B(2)
| Launched | 2 March 1982 |
| Flight ended | – |
| Launch site | Plesetsk Missile and Space Complex, Russia |
| Owner | Commonwealth of Independent States (former USSR) |
| NORAD ID | 13090 |
| Date fetched |
Epoch osculation |
Inc. [°] |
Ecc. | RA asc node [hr] |
Arg Peri. [°] |
Mean anom [°] |
Mean motion [rev/day] |
Abs. mag |
| Date fetched |
Epoch osculation |
Inc. [°] |
Ecc. | RA asc node [hr] |
Arg Peri. [°] |
Mean anom [°] |
Mean motion [rev/day] |
Abs. mag |
| 2026 May 05 17:57 | 2026 May 04 09:11:16 | 63.7767 | 0.72912 | 7.4645 | 358.5429 | 359.9961 | 2.03682 | 5.743 |
| 2026 May 04 17:57 | 2026 Apr 29 23:08:39 | 63.7744 | 0.72934 | 7.5065 | 358.5442 | 359.9961 | 2.03682 | 5.743 |
| 2026 May 03 17:57 | 2026 Apr 29 23:08:39 | 63.7744 | 0.72934 | 7.5065 | 358.5442 | 359.9961 | 2.03682 | 5.743 |
| 2026 May 02 17:57 | 2026 Apr 29 23:08:39 | 63.7744 | 0.72934 | 7.5065 | 358.5442 | 359.9961 | 2.03682 | 5.743 |
| 2026 May 01 17:56 | 2026 Apr 29 23:08:39 | 63.7744 | 0.72934 | 7.5065 | 358.5442 | 359.9961 | 2.03682 | 5.743 |
| 2026 Apr 30 17:56 | 2026 Apr 29 23:08:39 | 63.7744 | 0.72934 | 7.5065 | 358.5442 | 359.9961 | 2.03682 | 5.743 |
| 2026 Apr 29 17:57 | 2026 Apr 24 01:45:27 | 63.7667 | 0.72963 | 7.5625 | 358.5484 | 359.9961 | 2.03682 | 5.743 |
| 2026 Apr 28 17:56 | 2026 Apr 24 01:45:27 | 63.7667 | 0.72963 | 7.5625 | 358.5484 | 359.9961 | 2.03682 | 5.743 |
| 2026 Apr 27 17:58 | 2026 Apr 24 01:45:27 | 63.7667 | 0.72963 | 7.5625 | 358.5484 | 359.9961 | 2.03682 | 5.743 |
| 2026 Apr 26 17:58 | 2026 Apr 24 01:45:27 | 63.7667 | 0.72963 | 7.5625 | 358.5484 | 359.9961 | 2.03682 | 5.743 |
| 2026 Apr 25 17:58 | 2026 Apr 24 01:45:27 | 63.7667 | 0.72963 | 7.5625 | 358.5484 | 359.9961 | 2.03682 | 5.743 |
| 2026 Apr 24 17:59 | 2026 Apr 24 01:45:27 | 63.7667 | 0.72963 | 7.5625 | 358.5484 | 359.9961 | 2.03682 | 5.743 |
| 2026 Apr 23 17:57 | 2026 Apr 19 03:55:52 | 63.7562 | 0.72989 | 7.6091 | 358.5492 | 359.9961 | 2.03682 | 5.743 |
| 2026 Apr 22 17:57 | 2026 Apr 19 03:55:52 | 63.7562 | 0.72989 | 7.6091 | 358.5492 | 359.9961 | 2.03682 | 5.743 |
| 2026 Apr 21 17:57 | 2026 Apr 19 03:55:52 | 63.7562 | 0.72989 | 7.6091 | 358.5492 | 359.9961 | 2.03682 | 5.743 |
| 2026 Apr 20 17:57 | 2026 Apr 19 03:55:52 | 63.7562 | 0.72989 | 7.6091 | 358.5492 | 359.9961 | 2.03682 | 5.743 |
| 2026 Apr 19 17:58 | 2026 Apr 19 03:55:52 | 63.7562 | 0.72989 | 7.6091 | 358.5492 | 359.9961 | 2.03682 | 5.743 |
| 2026 Apr 18 17:56 | 2026 Apr 13 06:32:01 | 63.7425 | 0.73023 | 7.6651 | 358.5449 | 359.9961 | 2.03682 | 5.743 |
| 2026 Apr 16 17:57 | 2026 Apr 13 06:32:01 | 63.7425 | 0.73023 | 7.6651 | 358.5449 | 359.9961 | 2.03682 | 5.743 |
| 2026 Apr 14 17:57 | 2026 Apr 13 06:32:01 | 63.7425 | 0.73023 | 7.6651 | 358.5449 | 359.9961 | 2.03682 | 5.743 |
| 2026 Apr 13 17:57 | 2026 Apr 13 06:32:01 | 63.7425 | 0.73023 | 7.6651 | 358.5449 | 359.9961 | 2.03682 | 5.743 |
| 2026 Apr 12 17:57 | 2026 Apr 07 20:54:46 | 63.7355 | 0.73049 | 7.7165 | 358.5412 | 359.9961 | 2.03682 | 5.743 |
| 2026 Apr 11 17:57 | 2026 Apr 07 20:54:46 | 63.7355 | 0.73049 | 7.7165 | 358.5412 | 359.9961 | 2.03682 | 5.743 |
| 2026 Apr 10 17:58 | 2026 Apr 07 20:54:46 | 63.7355 | 0.73049 | 7.7165 | 358.5412 | 359.9961 | 2.03682 | 5.743 |
| 2026 Apr 09 18:01 | 2026 Apr 07 20:54:46 | 63.7355 | 0.73049 | 7.7165 | 358.5412 | 359.9961 | 2.03682 | 5.743 |
| 2026 Apr 08 17:57 | 2026 Apr 07 20:54:46 | 63.7355 | 0.73049 | 7.7165 | 358.5412 | 359.9961 | 2.03682 | 5.743 |